Terminal Aerodrome Forecast
Issued by NWS

Home | Current Version | Previous Version | Text Only | Print | Product List | Glossary On
Versions: 1 2 3 4 5 6 7 8 9 10 11 12
000
FTUS43 KAPX 051731
TAFAPN
TAF
KAPN 051731Z 0518/0618 11009KT P6SM SKC
     FM060100 17003KT P6SM SKC
     FM060700 18003KT 5SM BR SKC
     FM061200 20004KT 3SM BR SKC
     FM061400 18008KT P6SM SKC=

USA.gov is the U.S. government's official web portal to all federal, state and local government web resources and services.